createdAt,value
2023-02-25T00:00:32.387Z,971.20
2023-02-25T00:01:32.408Z,971.16
2023-02-25T00:02:32.373Z,971.18
2023-02-25T00:03:32.439Z,971.19
2023-02-25T00:04:32.397Z,971.17
2023-02-25T00:05:32.344Z,971.18
2023-02-25T00:06:32.328Z,971.19
2023-02-25T00:07:32.317Z,971.18
2023-02-25T00:08:32.314Z,971.20
2023-02-25T00:09:32.288Z,971.16
2023-02-25T00:10:32.290Z,971.13
2023-02-25T00:11:32.268Z,971.21
2023-02-25T00:12:32.266Z,971.22
2023-02-25T00:13:32.248Z,971.22
2023-02-25T00:14:32.248Z,971.27
2023-02-25T00:15:32.229Z,971.24
2023-02-25T00:16:32.297Z,971.29
2023-02-25T00:17:32.217Z,971.24
2023-02-25T00:18:32.199Z,971.30
2023-02-25T00:19:32.192Z,971.30
2023-02-25T00:20:32.189Z,971.28
2023-02-25T00:21:32.172Z,971.22
2023-02-25T00:22:32.146Z,971.32
2023-02-25T00:23:32.152Z,971.26
2023-02-25T00:24:32.127Z,971.25
2023-02-25T00:25:32.143Z,971.25
2023-02-25T00:26:32.128Z,971.29
2023-02-25T00:27:32.114Z,971.29
2023-02-25T00:28:32.106Z,971.29
2023-02-25T00:29:32.121Z,971.31
2023-02-25T00:30:32.074Z,971.25
2023-02-25T00:31:32.252Z,971.30
2023-02-25T00:32:32.096Z,971.29
2023-02-25T00:33:32.052Z,971.32
2023-02-25T00:34:32.028Z,971.28
2023-02-25T00:35:32.119Z,971.34
2023-02-25T00:36:32.005Z,971.28
2023-02-25T00:37:32.020Z,971.27
2023-02-25T00:38:31.996Z,971.28
2023-02-25T00:39:32.015Z,971.21
2023-02-25T00:40:32.061Z,971.28
2023-02-25T00:41:32.007Z,971.23
2023-02-25T00:42:31.988Z,971.25
2023-02-25T00:43:31.973Z,971.30
2023-02-25T00:44:31.928Z,971.28
2023-02-25T00:45:31.934Z,971.24
2023-02-25T00:46:32.001Z,971.29
2023-02-25T00:47:31.908Z,971.29
2023-02-25T00:48:31.906Z,971.29
2023-02-25T00:49:32.809Z,971.30
2023-02-25T00:50:31.871Z,971.35
2023-02-25T00:51:31.923Z,971.39
2023-02-25T00:52:31.936Z,971.28
2023-02-25T00:53:31.852Z,971.38
2023-02-25T00:54:31.850Z,971.33
2023-02-25T00:55:31.829Z,971.25
2023-02-25T00:56:31.807Z,971.39
2023-02-25T00:57:31.833Z,971.31
2023-02-25T00:58:31.784Z,971.36
2023-02-25T00:59:31.787Z,971.32
2023-02-25T01:00:40.479Z,971.40
2023-02-25T01:01:31.872Z,971.34
2023-02-25T01:02:31.812Z,971.48
2023-02-25T01:03:31.813Z,971.44
2023-02-25T01:04:31.739Z,971.39
2023-02-25T01:05:31.756Z,971.38
2023-02-25T01:06:31.698Z,971.47
2023-02-25T01:07:31.708Z,971.44
2023-02-25T01:08:31.682Z,971.45
2023-02-25T01:09:31.693Z,971.47
2023-02-25T01:10:31.663Z,971.50
2023-02-25T01:11:31.681Z,971.52
2023-02-25T01:12:31.636Z,971.47
2023-02-25T01:13:31.670Z,971.49
2023-02-25T01:14:31.617Z,971.49
2023-02-25T01:15:31.618Z,971.47
2023-02-25T01:16:31.746Z,971.47
2023-02-25T01:17:31.611Z,971.49
2023-02-25T01:18:31.590Z,971.50
2023-02-25T01:19:31.609Z,971.51
2023-02-25T01:20:31.593Z,971.52
2023-02-25T01:21:31.564Z,971.55
2023-02-25T01:22:31.620Z,971.54
2023-02-25T01:23:31.537Z,971.55
2023-02-25T01:24:31.541Z,971.54
2023-02-25T01:25:31.507Z,971.56
2023-02-25T01:26:31.516Z,971.59
2023-02-25T01:27:31.485Z,971.63
2023-02-25T01:28:31.512Z,971.61
2023-02-25T01:29:31.471Z,971.66
2023-02-25T01:30:31.489Z,971.63
2023-02-25T01:31:31.788Z,971.63
2023-02-25T01:32:31.657Z,971.63
2023-02-25T01:33:31.439Z,971.64
2023-02-25T01:34:31.595Z,971.65
2023-02-25T01:35:31.403Z,971.69
2023-02-25T01:36:31.419Z,971.66
2023-02-25T01:37:31.408Z,971.73
2023-02-25T01:38:31.397Z,971.69
2023-02-25T01:39:31.393Z,971.73
2023-02-25T01:40:31.376Z,971.69
2023-02-25T01:41:31.374Z,971.71
2023-02-25T01:42:31.375Z,971.68
2023-02-25T01:43:31.352Z,971.68
2023-02-25T01:44:31.335Z,971.61
2023-02-25T01:45:31.307Z,971.65
2023-02-25T01:46:31.360Z,971.64
2023-02-25T01:47:31.306Z,971.69
2023-02-25T01:48:31.301Z,971.67
2023-02-25T01:49:31.308Z,971.67
2023-02-25T01:50:31.269Z,971.70
2023-02-25T01:51:31.242Z,971.70
2023-02-25T01:52:31.275Z,971.69
2023-02-25T01:53:31.227Z,971.71
2023-02-25T01:54:31.234Z,971.69
2023-02-25T01:55:31.206Z,971.67
2023-02-25T01:56:31.213Z,971.66
2023-02-25T01:57:31.188Z,971.67
2023-02-25T01:58:31.211Z,971.66
2023-02-25T01:59:31.170Z,971.68
2023-02-25T02:00:31.196Z,971.69
2023-02-25T02:01:31.146Z,971.68
2023-02-25T02:02:31.229Z,971.66
2023-02-25T02:03:31.125Z,971.65
2023-02-25T02:04:31.169Z,971.71
2023-02-25T02:05:31.105Z,971.74
2023-02-25T02:06:31.113Z,971.69
2023-02-25T02:07:31.083Z,971.68
2023-02-25T02:08:31.097Z,971.71
2023-02-25T02:09:31.067Z,971.76
2023-02-25T02:10:31.156Z,971.76
2023-02-25T02:11:31.066Z,971.76
2023-02-25T02:12:31.059Z,971.76
2023-02-25T02:13:31.037Z,971.75
2023-02-25T02:14:31.041Z,971.73
2023-02-25T02:15:31.026Z,971.73
2023-02-25T02:16:31.080Z,971.74
2023-02-25T02:17:30.984Z,971.70
2023-02-25T02:18:31.000Z,971.70
2023-02-25T02:19:30.971Z,971.64
2023-02-25T02:20:30.998Z,971.62
2023-02-25T02:21:30.969Z,971.56
2023-02-25T02:22:30.946Z,971.58
2023-02-25T02:23:30.928Z,971.58
2023-02-25T02:24:30.948Z,971.55
2023-02-25T02:25:30.929Z,971.57
2023-02-25T02:26:30.929Z,971.59
2023-02-25T02:27:30.904Z,971.66
2023-02-25T02:28:30.905Z,971.64
2023-02-25T02:29:30.862Z,971.64
2023-02-25T02:30:30.909Z,971.66
2023-02-25T02:31:30.892Z,971.68
2023-02-25T02:32:30.927Z,971.70
2023-02-25T02:33:30.834Z,971.70
2023-02-25T02:34:30.893Z,971.73
2023-02-25T02:35:30.820Z,971.69
2023-02-25T02:36:30.816Z,971.74
2023-02-25T02:37:30.790Z,971.77
2023-02-25T02:38:30.810Z,971.71
2023-02-25T02:39:30.765Z,971.73
2023-02-25T02:40:30.773Z,971.76
2023-02-25T02:41:30.742Z,971.80
2023-02-25T02:42:30.754Z,971.79
2023-02-25T02:43:30.740Z,971.77
2023-02-25T02:44:30.723Z,971.78
2023-02-25T02:45:30.856Z,971.75
2023-02-25T02:46:30.707Z,971.77
2023-02-25T02:47:30.680Z,971.78
2023-02-25T02:48:30.693Z,971.78
2023-02-25T02:49:30.660Z,971.81
2023-02-25T02:50:30.684Z,971.83
2023-02-25T02:51:30.668Z,971.79
2023-02-25T02:52:30.648Z,971.73
2023-02-25T02:53:30.616Z,971.77
2023-02-25T02:54:30.626Z,971.72
2023-02-25T02:55:30.599Z,971.66
2023-02-25T02:56:30.619Z,971.68
2023-02-25T02:57:30.571Z,971.66
2023-02-25T02:58:30.580Z,971.68
2023-02-25T02:59:30.574Z,971.70
2023-02-25T03:00:30.592Z,971.66
2023-02-25T03:01:30.622Z,971.74
2023-02-25T03:02:30.539Z,971.74
2023-02-25T03:03:30.542Z,971.71
2023-02-25T03:04:30.520Z,971.70
2023-02-25T03:05:30.502Z,971.73
2023-02-25T03:06:30.520Z,971.72
2023-02-25T03:07:30.474Z,971.68
2023-02-25T03:08:30.480Z,971.74
2023-02-25T03:09:30.463Z,971.68
2023-02-25T03:10:30.461Z,971.68
2023-02-25T03:11:30.459Z,971.69
2023-02-25T03:12:30.444Z,971.69
2023-02-25T03:13:30.427Z,971.63
2023-02-25T03:14:30.460Z,971.63
2023-02-25T03:15:30.389Z,971.64
2023-02-25T03:16:30.438Z,971.63
2023-02-25T03:17:30.381Z,971.64
2023-02-25T03:18:30.399Z,971.65
2023-02-25T03:19:30.358Z,971.65
2023-02-25T03:20:30.385Z,971.68
2023-02-25T03:21:30.359Z,971.69
2023-02-25T03:22:30.350Z,971.72
2023-02-25T03:23:30.357Z,971.71
2023-02-25T03:24:30.330Z,971.77
2023-02-25T03:25:30.298Z,971.70
2023-02-25T03:26:30.343Z,971.74
2023-02-25T03:27:30.288Z,971.75
2023-02-25T03:28:30.289Z,971.75
2023-02-25T03:29:30.264Z,971.85
2023-02-25T03:30:30.286Z,971.86
2023-02-25T03:31:30.286Z,971.86
2023-02-25T03:32:30.422Z,971.87
2023-02-25T03:33:30.229Z,971.90
2023-02-25T03:34:30.237Z,971.90
2023-02-25T03:35:30.208Z,971.88
2023-02-25T03:36:30.262Z,971.85
2023-02-25T03:37:30.183Z,971.90
2023-02-25T03:38:30.189Z,971.93
2023-02-25T03:39:30.167Z,971.97
2023-02-25T03:40:30.167Z,971.99
2023-02-25T03:41:30.145Z,971.98
2023-02-25T03:42:30.170Z,971.97
2023-02-25T03:43:30.134Z,971.91
2023-02-25T03:44:30.134Z,971.96
2023-02-25T03:45:30.113Z,971.95
2023-02-25T03:46:30.177Z,971.96
2023-02-25T03:47:30.110Z,971.94
2023-02-25T03:48:30.101Z,971.89
2023-02-25T03:49:30.067Z,971.93
2023-02-25T03:50:30.072Z,972.01
2023-02-25T03:51:30.091Z,971.98
2023-02-25T03:52:30.050Z,971.99
2023-02-25T03:53:30.027Z,972.00
2023-02-25T03:54:30.042Z,972.00
2023-02-25T03:55:30.003Z,971.97
2023-02-25T03:56:36.061Z,972.01
2023-02-25T03:57:29.981Z,972.09
2023-02-25T03:58:29.990Z,972.03
2023-02-25T03:59:29.963Z,972.11
2023-02-25T04:00:29.966Z,972.12
2023-02-25T04:01:29.953Z,972.14
2023-02-25T04:02:30.039Z,972.12
2023-02-25T04:03:29.920Z,972.14
2023-02-25T04:04:29.966Z,972.11
2023-02-25T04:05:29.910Z,972.14
2023-02-25T04:06:29.944Z,972.15
2023-02-25T04:07:29.880Z,972.15
2023-02-25T04:08:29.884Z,972.14
2023-02-25T04:09:29.862Z,972.14
2023-02-25T04:10:29.861Z,972.18
2023-02-25T04:11:29.904Z,972.16
2023-02-25T04:12:29.867Z,972.14
2023-02-25T04:13:29.825Z,972.25
2023-02-25T04:14:29.826Z,972.22
2023-02-25T04:15:29.819Z,972.24
2023-02-25T04:16:29.829Z,972.24
2023-02-25T04:17:29.777Z,972.27
2023-02-25T04:18:29.790Z,972.29
2023-02-25T04:19:29.766Z,972.30
2023-02-25T04:20:29.766Z,972.33
2023-02-25T04:21:29.793Z,972.32
2023-02-25T04:22:29.767Z,972.34
2023-02-25T04:23:29.719Z,972.32
2023-02-25T04:24:29.723Z,972.37
2023-02-25T04:25:29.698Z,972.39
2023-02-25T04:26:29.729Z,972.42
2023-02-25T04:27:29.691Z,972.42
2023-02-25T04:28:29.702Z,972.44
2023-02-25T04:29:29.689Z,972.41
2023-02-25T04:30:29.696Z,972.43
2023-02-25T04:31:29.928Z,972.46
2023-02-25T04:32:29.803Z,972.46
2023-02-25T04:33:29.619Z,972.47
2023-02-25T04:34:29.660Z,972.47
2023-02-25T04:35:29.597Z,972.49
2023-02-25T04:36:29.625Z,972.46
2023-02-25T04:37:29.580Z,972.51
2023-02-25T04:38:29.625Z,972.51
2023-02-25T04:39:29.558Z,972.48
2023-02-25T04:40:29.593Z,972.49
2023-02-25T04:41:29.565Z,972.52
2023-02-25T04:42:29.551Z,972.54
2023-02-25T04:43:29.517Z,972.52
2023-02-25T04:44:29.522Z,972.51
2023-02-25T04:45:29.502Z,972.52
2023-02-25T04:46:29.552Z,972.50
2023-02-25T04:47:29.497Z,972.50
2023-02-25T04:48:29.514Z,972.52
2023-02-25T04:49:29.459Z,972.58
2023-02-25T04:50:29.465Z,972.54
2023-02-25T04:51:29.436Z,972.54
2023-02-25T04:52:29.446Z,972.56
2023-02-25T04:53:29.415Z,972.60
2023-02-25T04:54:29.438Z,972.55
2023-02-25T04:55:29.409Z,972.58
2023-02-25T04:56:29.403Z,972.56
2023-02-25T04:57:29.378Z,972.51
2023-02-25T04:58:29.391Z,972.53
2023-02-25T04:59:29.364Z,972.50
2023-02-25T05:00:29.401Z,972.49
2023-02-25T05:01:29.346Z,972.48
2023-02-25T05:02:29.361Z,972.50
2023-02-25T05:03:29.321Z,972.51
2023-02-25T05:04:29.358Z,972.52
2023-02-25T05:05:29.332Z,972.53
2023-02-25T05:06:29.301Z,972.50
2023-02-25T05:07:29.280Z,972.49
2023-02-25T05:08:29.289Z,972.53
2023-02-25T05:09:29.272Z,972.54
2023-02-25T05:10:29.267Z,972.46
2023-02-25T05:11:29.291Z,972.52
2023-02-25T05:12:29.247Z,972.50
2023-02-25T05:13:29.227Z,972.47
2023-02-25T05:14:30.828Z,972.46
2023-02-25T05:15:29.201Z,972.44
2023-02-25T05:16:29.247Z,972.42
2023-02-25T05:17:29.214Z,972.41
2023-02-25T05:18:29.195Z,972.39
2023-02-25T05:19:29.163Z,972.38
2023-02-25T05:20:29.201Z,972.36
2023-02-25T05:21:29.154Z,972.35
2023-02-25T05:22:29.152Z,972.35
2023-02-25T05:23:29.152Z,972.36
2023-02-25T05:24:29.129Z,972.37
2023-02-25T05:25:29.101Z,972.38
2023-02-25T05:26:29.101Z,972.39
2023-02-25T05:27:29.091Z,972.43
2023-02-25T05:28:29.112Z,972.38
2023-02-25T05:29:29.105Z,972.40
2023-02-25T05:30:29.092Z,972.39
2023-02-25T05:31:29.112Z,972.40
2023-02-25T05:32:29.136Z,972.40
2023-02-25T05:33:29.037Z,972.36
2023-02-25T05:34:29.012Z,972.33
2023-02-25T05:35:29.042Z,972.36
2023-02-25T05:36:29.287Z,972.34
2023-02-25T05:37:28.993Z,972.34
2023-02-25T05:38:28.966Z,972.37
2023-02-25T05:39:28.998Z,972.36
2023-02-25T05:40:28.966Z,972.36
2023-02-25T05:41:28.958Z,972.38
2023-02-25T05:42:28.928Z,972.37
2023-02-25T05:43:28.948Z,972.38
2023-02-25T05:44:28.907Z,972.42
2023-02-25T05:45:28.951Z,972.39
2023-02-25T05:46:28.981Z,972.41
2023-02-25T05:47:28.909Z,972.39
2023-02-25T05:48:28.868Z,972.43
2023-02-25T05:49:28.877Z,972.45
2023-02-25T05:50:28.847Z,972.42
2023-02-25T05:51:28.879Z,972.41
2023-02-25T05:52:28.835Z,972.40
2023-02-25T05:53:28.839Z,972.38
2023-02-25T05:54:28.768Z,972.39
2023-02-25T05:55:28.757Z,972.41
2023-02-25T05:56:31.898Z,972.41
2023-02-25T05:57:28.774Z,972.35
2023-02-25T05:58:28.738Z,972.36
2023-02-25T05:59:28.725Z,972.38
2023-02-25T06:00:28.693Z,972.34
2023-02-25T06:01:28.725Z,972.36
2023-02-25T06:02:28.843Z,972.37
2023-02-25T06:03:28.744Z,972.41
2023-02-25T06:04:28.684Z,972.42
2023-02-25T06:05:28.657Z,972.43
2023-02-25T06:06:28.638Z,972.44
2023-02-25T06:07:28.641Z,972.45
2023-02-25T06:08:28.630Z,972.48
2023-02-25T06:09:28.618Z,972.45
2023-02-25T06:10:28.622Z,972.45
2023-02-25T06:11:28.600Z,972.41
2023-02-25T06:12:28.792Z,972.43
2023-02-25T06:13:28.584Z,972.44
2023-02-25T06:14:28.546Z,972.44
2023-02-25T06:15:28.673Z,972.51
2023-02-25T06:16:28.653Z,972.52
2023-02-25T06:17:28.665Z,972.53
2023-02-25T06:18:28.565Z,972.55
2023-02-25T06:19:28.560Z,972.57
2023-02-25T06:20:28.540Z,972.59
2023-02-25T06:21:28.542Z,972.58
2023-02-25T06:22:28.519Z,972.50
2023-02-25T06:23:28.550Z,972.55
2023-02-25T06:24:28.502Z,972.55
2023-02-25T06:25:28.509Z,972.57
2023-02-25T06:26:28.482Z,972.55
2023-02-25T06:27:28.432Z,972.56
2023-02-25T06:28:28.461Z,972.62
2023-02-25T06:29:28.620Z,972.66
2023-02-25T06:30:28.442Z,972.68
2023-02-25T06:31:28.471Z,972.71
2023-02-25T06:32:28.599Z,972.70
2023-02-25T06:33:28.432Z,972.74
2023-02-25T06:34:28.362Z,972.74
2023-02-25T06:35:28.438Z,972.73
2023-02-25T06:36:28.337Z,972.75
2023-02-25T06:37:28.342Z,972.73
2023-02-25T06:38:28.333Z,972.74
2023-02-25T06:39:28.368Z,972.76
2023-02-25T06:40:28.351Z,972.75
2023-02-25T06:41:28.370Z,972.77
2023-02-25T06:42:28.324Z,972.80
2023-02-25T06:43:28.333Z,972.84
2023-02-25T06:44:28.331Z,972.87
2023-02-25T06:45:28.327Z,972.90
2023-02-25T06:46:28.701Z,972.92
2023-02-25T06:47:28.312Z,972.92
2023-02-25T06:48:28.269Z,972.98
2023-02-25T06:49:28.258Z,972.99
2023-02-25T06:50:28.187Z,973.01
2023-02-25T06:51:28.194Z,973.01
2023-02-25T06:52:28.192Z,972.99
2023-02-25T06:53:28.175Z,973.01
2023-02-25T06:54:28.153Z,972.99
2023-02-25T06:55:28.213Z,973.00
2023-02-25T06:56:28.185Z,973.00
2023-02-25T06:57:28.195Z,973.01
2023-02-25T06:58:28.192Z,973.01
2023-02-25T06:59:28.162Z,972.97
2023-02-25T07:00:28.145Z,973.03
2023-02-25T07:01:28.221Z,973.05
2023-02-25T07:02:28.126Z,973.12
2023-02-25T07:03:28.119Z,973.16
2023-02-25T07:04:28.079Z,973.16
2023-02-25T07:05:28.099Z,973.17
2023-02-25T07:06:28.039Z,973.16
2023-02-25T07:07:28.071Z,973.17
2023-02-25T07:08:28.012Z,973.20
2023-02-25T07:09:28.015Z,973.21
2023-02-25T07:10:28.013Z,973.21
2023-02-25T07:11:27.992Z,973.23
2023-02-25T07:12:27.986Z,973.26
2023-02-25T07:13:27.980Z,973.29
2023-02-25T07:14:27.956Z,973.31
2023-02-25T07:15:27.989Z,973.30
2023-02-25T07:16:27.988Z,973.31
2023-02-25T07:17:28.016Z,973.27
2023-02-25T07:18:27.965Z,973.31
2023-02-25T07:19:27.964Z,973.33
2023-02-25T07:20:27.942Z,973.38
2023-02-25T07:21:27.950Z,973.35
2023-02-25T07:22:27.926Z,973.37
2023-02-25T07:23:27.928Z,973.34
2023-02-25T07:24:27.914Z,973.33
2023-02-25T07:25:27.999Z,973.36
2023-02-25T07:26:27.896Z,973.33
2023-02-25T07:27:27.892Z,973.32
2023-02-25T07:28:27.818Z,973.33
2023-02-25T07:29:27.844Z,973.34
2023-02-25T07:30:27.791Z,973.32
2023-02-25T07:31:28.387Z,973.33
2023-02-25T07:32:28.024Z,973.35
2023-02-25T07:33:27.766Z,973.37
2023-02-25T07:34:27.765Z,973.34
2023-02-25T07:35:27.754Z,973.36
2023-02-25T07:36:27.724Z,973.40
2023-02-25T07:37:27.736Z,973.40
2023-02-25T07:38:27.769Z,973.40
2023-02-25T07:39:27.797Z,973.39
2023-02-25T07:40:27.753Z,973.34
2023-02-25T07:41:27.751Z,973.33
2023-02-25T07:42:27.683Z,973.34
2023-02-25T07:43:27.681Z,973.35
2023-02-25T07:44:27.648Z,973.37
2023-02-25T07:45:27.670Z,973.42
2023-02-25T07:46:27.759Z,973.47
2023-02-25T07:47:27.685Z,973.48
2023-02-25T07:48:27.663Z,973.47
2023-02-25T07:49:27.684Z,973.44
2023-02-25T07:50:27.670Z,973.45
2023-02-25T07:51:27.642Z,973.48
2023-02-25T07:52:27.575Z,973.49
2023-02-25T07:53:27.587Z,973.58
2023-02-25T07:54:27.548Z,973.60
2023-02-25T07:55:27.612Z,973.60
2023-02-25T07:56:27.549Z,973.62
2023-02-25T07:57:27.537Z,973.64
2023-02-25T07:58:27.514Z,973.64
2023-02-25T07:59:27.518Z,973.66
2023-02-25T08:00:27.530Z,973.69
2023-02-25T08:01:27.499Z,973.68
2023-02-25T08:02:27.605Z,973.69
2023-02-25T08:03:27.478Z,973.73
2023-02-25T08:04:27.582Z,973.74
2023-02-25T08:05:27.472Z,973.77
2023-02-25T08:06:27.434Z,973.70
2023-02-25T08:07:27.886Z,973.70
2023-02-25T08:08:27.431Z,973.72
2023-02-25T08:09:27.475Z,973.74
2023-02-25T08:10:27.398Z,973.76
2023-02-25T08:11:27.452Z,973.74
2023-02-25T08:12:27.397Z,973.80
2023-02-25T08:13:27.371Z,973.81
2023-02-25T08:14:27.410Z,973.80
2023-02-25T08:15:27.400Z,973.81
2023-02-25T08:16:27.331Z,973.77
2023-02-25T08:17:27.410Z,973.80
2023-02-25T08:18:27.390Z,973.74
2023-02-25T08:19:27.363Z,973.79
2023-02-25T08:20:27.288Z,973.81
2023-02-25T08:21:27.422Z,973.88
2023-02-25T08:22:27.326Z,973.85
2023-02-25T08:23:27.292Z,973.89
2023-02-25T08:24:27.269Z,973.86
2023-02-25T08:25:27.312Z,973.92
2023-02-25T08:26:27.257Z,973.94
2023-02-25T08:27:27.276Z,973.90
2023-02-25T08:28:27.219Z,973.90
2023-02-25T08:29:27.227Z,973.90
2023-02-25T08:30:27.205Z,973.90
2023-02-25T08:31:27.771Z,973.94
2023-02-25T08:32:27.261Z,973.97
2023-02-25T08:33:27.204Z,973.93
2023-02-25T08:34:27.153Z,973.97
2023-02-25T08:35:27.160Z,973.95
2023-02-25T08:36:27.153Z,973.97
2023-02-25T08:37:27.147Z,974.00
2023-02-25T08:38:27.137Z,974.02
2023-02-25T08:39:27.112Z,974.05
2023-02-25T08:40:27.085Z,974.05
2023-02-25T08:41:27.291Z,974.04
2023-02-25T08:42:27.076Z,974.05
2023-02-25T08:43:27.071Z,974.07
2023-02-25T08:44:27.076Z,974.07
2023-02-25T08:45:27.051Z,974.05
2023-02-25T08:46:27.056Z,974.06
2023-02-25T08:47:27.043Z,974.04
2023-02-25T08:48:27.011Z,974.07
2023-02-25T08:49:27.049Z,974.08
2023-02-25T08:50:26.990Z,974.05
2023-02-25T08:51:26.986Z,974.01
2023-02-25T08:52:26.985Z,974.03
2023-02-25T08:53:26.973Z,974.03
2023-02-25T08:54:26.950Z,974.04
2023-02-25T08:55:27.008Z,974.08
2023-02-25T08:56:26.930Z,974.09
2023-02-25T08:57:27.082Z,974.12
2023-02-25T08:58:26.926Z,974.09
2023-02-25T08:59:26.927Z,974.14
2023-02-25T09:00:26.887Z,974.10
2023-02-25T09:01:27.206Z,974.09
2023-02-25T09:02:26.905Z,974.11
2023-02-25T09:03:26.867Z,974.08
2023-02-25T09:04:26.902Z,974.08
2023-02-25T09:05:26.847Z,974.05
2023-02-25T09:06:26.830Z,974.07
2023-02-25T09:07:26.848Z,974.06
2023-02-25T09:08:26.827Z,974.10
2023-02-25T09:09:26.814Z,974.09
2023-02-25T09:10:26.793Z,974.10
2023-02-25T09:11:27.027Z,974.11
2023-02-25T09:12:26.814Z,974.13
2023-02-25T09:13:26.763Z,974.13
2023-02-25T09:14:26.746Z,974.13
2023-02-25T09:15:26.768Z,974.10
2023-02-25T09:16:26.751Z,974.10
2023-02-25T09:17:26.725Z,974.22
2023-02-25T09:18:26.728Z,974.30
2023-02-25T09:19:26.714Z,974.27
2023-02-25T09:20:26.683Z,974.28
2023-02-25T09:21:26.688Z,974.26
2023-02-25T09:22:26.694Z,974.30
2023-02-25T09:23:26.666Z,974.30
2023-02-25T09:24:26.689Z,974.31
2023-02-25T09:25:26.648Z,974.16
2023-02-25T09:26:26.632Z,974.27
2023-02-25T09:27:26.642Z,974.27
2023-02-25T09:28:26.622Z,974.34
2023-02-25T09:29:26.618Z,974.31
2023-02-25T09:30:26.590Z,974.31
2023-02-25T09:31:27.146Z,974.29
2023-02-25T09:32:26.678Z,974.32
2023-02-25T09:33:26.593Z,974.36
2023-02-25T09:34:26.628Z,974.44
2023-02-25T09:35:26.637Z,974.51
2023-02-25T09:36:26.666Z,974.51
2023-02-25T09:37:26.527Z,974.54
2023-02-25T09:38:26.559Z,974.59
2023-02-25T09:39:26.560Z,974.59
2023-02-25T09:40:26.578Z,974.59
2023-02-25T09:41:26.592Z,974.64
2023-02-25T09:42:26.466Z,974.64
2023-02-25T09:43:26.469Z,974.63
2023-02-25T09:44:26.449Z,974.67
2023-02-25T09:45:26.487Z,974.66
2023-02-25T09:46:26.437Z,974.64
2023-02-25T09:47:26.605Z,974.68
2023-02-25T09:48:26.426Z,974.73
2023-02-25T09:49:26.400Z,974.73
2023-02-25T09:50:26.390Z,974.70
2023-02-25T09:51:26.379Z,974.71
2023-02-25T09:52:26.377Z,974.71
2023-02-25T09:53:26.378Z,974.69
2023-02-25T09:54:26.381Z,974.64
2023-02-25T09:55:26.331Z,974.67
2023-02-25T09:56:26.329Z,974.67
2023-02-25T09:57:26.316Z,974.61
2023-02-25T09:58:26.323Z,974.64
2023-02-25T09:59:26.335Z,974.66
2023-02-25T10:00:26.313Z,974.67
2023-02-25T10:01:26.291Z,974.75
2023-02-25T10:02:26.350Z,974.66
2023-02-25T10:03:26.401Z,974.68
2023-02-25T10:04:26.270Z,974.72
2023-02-25T10:05:26.293Z,974.61
2023-02-25T10:06:26.268Z,974.72
2023-02-25T10:07:26.264Z,974.65
2023-02-25T10:08:26.218Z,974.73
2023-02-25T10:09:26.190Z,974.65
2023-02-25T10:10:26.213Z,974.68
2023-02-25T10:11:26.174Z,974.66
2023-02-25T10:12:26.177Z,974.59
2023-02-25T10:13:26.170Z,974.58
2023-02-25T10:14:26.160Z,974.56
2023-02-25T10:15:26.132Z,974.52
2023-02-25T10:16:26.191Z,974.51
2023-02-25T10:17:26.110Z,974.49
2023-02-25T10:18:26.185Z,974.52
2023-02-25T10:19:26.089Z,974.53
2023-02-25T10:20:26.100Z,974.48
2023-02-25T10:21:26.366Z,974.49
2023-02-25T10:22:26.096Z,974.51
2023-02-25T10:23:26.051Z,974.50
2023-02-25T10:24:26.061Z,974.51
2023-02-25T10:25:26.046Z,974.57
2023-02-25T10:26:26.049Z,974.52
2023-02-25T10:27:26.043Z,974.48
2023-02-25T10:28:26.046Z,974.54
2023-02-25T10:29:25.996Z,974.55
2023-02-25T10:30:26.074Z,974.55
2023-02-25T10:31:26.537Z,974.58
2023-02-25T10:32:26.105Z,974.57
2023-02-25T10:33:25.971Z,974.64
2023-02-25T10:34:26.130Z,974.60
2023-02-25T10:35:25.931Z,974.63
2023-02-25T10:36:25.943Z,974.65
2023-02-25T10:37:25.914Z,974.67
2023-02-25T10:38:25.927Z,974.70
2023-02-25T10:39:25.901Z,974.72
2023-02-25T10:40:25.941Z,974.79
2023-02-25T10:41:26.149Z,974.79
2023-02-25T10:42:25.871Z,974.82
2023-02-25T10:43:25.871Z,974.77
2023-02-25T10:44:25.860Z,974.82
2023-02-25T10:45:25.830Z,974.87
2023-02-25T10:46:25.901Z,974.83
2023-02-25T10:47:25.814Z,974.88
2023-02-25T10:48:25.818Z,974.88
2023-02-25T10:49:25.797Z,974.93
2023-02-25T10:50:38.893Z,974.95
2023-02-25T10:51:26.145Z,974.91
2023-02-25T10:52:25.796Z,974.92
2023-02-25T10:53:25.777Z,974.91
2023-02-25T10:54:25.753Z,975.00
2023-02-25T10:55:25.734Z,974.94
2023-02-25T10:56:25.749Z,974.93
2023-02-25T10:57:25.718Z,974.91
2023-02-25T10:58:25.721Z,974.93
2023-02-25T10:59:25.717Z,974.90
2023-02-25T11:00:25.696Z,974.96
2023-02-25T11:01:26.139Z,975.01
2023-02-25T11:02:25.835Z,974.97
2023-02-25T11:03:25.669Z,974.97
2023-02-25T11:04:25.656Z,974.99
2023-02-25T11:05:25.628Z,975.02
2023-02-25T11:06:25.652Z,974.98
2023-02-25T11:07:25.660Z,975.03
2023-02-25T11:08:25.633Z,974.98
2023-02-25T11:09:25.617Z,974.98
2023-02-25T11:10:25.601Z,975.04
2023-02-25T11:11:25.926Z,975.03
2023-02-25T11:12:25.579Z,975.02
2023-02-25T11:13:25.557Z,975.05
2023-02-25T11:14:25.555Z,975.07
2023-02-25T11:15:41.561Z,975.06
2023-02-25T11:16:25.648Z,975.11
2023-02-25T11:17:25.517Z,975.10
2023-02-25T11:18:25.522Z,975.09
2023-02-25T11:19:25.539Z,975.09
2023-02-25T11:20:25.520Z,975.12
2023-02-25T11:21:25.775Z,975.10
2023-02-25T11:22:25.484Z,975.24
2023-02-25T11:23:28.104Z,975.17
2023-02-25T11:24:25.458Z,975.10
2023-02-25T11:25:25.458Z,975.08
2023-02-25T11:26:25.443Z,975.13
2023-02-25T11:27:25.422Z,975.15
2023-02-25T11:28:25.425Z,975.10
2023-02-25T11:29:25.394Z,975.19
2023-02-25T11:30:25.411Z,975.14
2023-02-25T11:31:25.832Z,975.20
2023-02-25T11:32:25.597Z,975.15
2023-02-25T11:33:25.363Z,975.15
2023-02-25T11:34:25.376Z,975.20
2023-02-25T11:35:25.337Z,975.23
2023-02-25T11:36:25.842Z,975.16
2023-02-25T11:37:25.370Z,975.19
2023-02-25T11:38:25.321Z,975.12
2023-02-25T11:39:25.286Z,975.16
2023-02-25T11:40:25.348Z,975.10
2023-02-25T11:41:25.747Z,975.10
2023-02-25T11:42:25.294Z,975.12
2023-02-25T11:43:25.428Z,975.08
2023-02-25T11:44:25.272Z,975.15
2023-02-25T11:45:25.397Z,975.08
2023-02-25T11:46:25.493Z,975.12
2023-02-25T11:47:25.222Z,975.12
2023-02-25T11:48:25.249Z,975.13
2023-02-25T11:49:25.217Z,975.11
2023-02-25T11:50:25.193Z,975.19
2023-02-25T11:51:25.175Z,975.09
2023-02-25T11:52:25.175Z,975.10
2023-02-25T11:53:25.222Z,975.09
2023-02-25T11:54:25.152Z,975.14
2023-02-25T11:55:25.148Z,975.13
2023-02-25T11:56:25.507Z,975.14
2023-02-25T11:57:25.123Z,975.18
2023-02-25T11:58:25.165Z,975.20
2023-02-25T11:59:25.085Z,975.20
2023-02-25T12:00:25.091Z,975.24
2023-02-25T12:01:25.073Z,975.19
2023-02-25T12:02:25.185Z,975.18
2023-02-25T12:03:25.056Z,975.21
2023-02-25T12:04:25.089Z,975.21
2023-02-25T12:05:25.087Z,975.26
2023-02-25T12:06:25.513Z,975.28
2023-02-25T12:07:25.001Z,975.32
2023-02-25T12:08:25.013Z,975.35
2023-02-25T12:09:24.987Z,975.38
2023-02-25T12:10:25.011Z,975.38
2023-02-25T12:11:24.964Z,975.41
2023-02-25T12:12:24.989Z,975.44
2023-02-25T12:13:24.997Z,975.48
2023-02-25T12:14:24.949Z,975.49
2023-02-25T12:15:24.953Z,975.53
2023-02-25T12:16:25.342Z,975.55
2023-02-25T12:17:24.906Z,975.56
2023-02-25T12:18:24.958Z,975.58
2023-02-25T12:19:24.888Z,975.61
2023-02-25T12:20:24.921Z,975.65
2023-02-25T12:21:25.259Z,975.67
2023-02-25T12:22:24.852Z,975.64
2023-02-25T12:23:24.837Z,975.65
2023-02-25T12:24:24.838Z,975.69
2023-02-25T12:25:24.816Z,975.75
2023-02-25T12:26:24.843Z,975.75
2023-02-25T12:27:24.791Z,975.75
2023-02-25T12:28:24.804Z,975.78